»·PEaware :: USC81 KLAS-KAFO

USC81 :: KLAS-KAFO

FLIGHT INFORMATION

Flight Status: Arrived
Operator: Unknown
More flights by this operator :: More flights under this callsign
Pilot: Andy P. (22680)
Aircraft: GATES LEARJET LEARJET 35/36
(LJ35)
More flights by this aircraft type
Origin: KLAS McCarran Intl
United States
Destination: KAFO Afton Mun
United States
More flights between these airports :: More routes between these airports
Route: +TRALR9 MLF J9 FFU CAALL
File this flight plan on PilotEdge
Remarks:
Altitude:
(Current/Filed)
37,000ft
Speed:
(Current/Filed)
465kts
Departed: 16-Oct-20 01:10 PM
Arrived: 16-Oct-20 02:24 PM
Distance/Time
Traveled:
443nm/1:14
Distance/Time
To Go:
Arrived

Flight Plot

Page will automatically refresh every two minutes.

Flight plan parsing failed; only flown route is shown


Map Options




Map Legend


Flown Route
Filed Route
Departure Airport
Arrival Airport
Navaid (VOR, NDB)
Fix

Horizontal Profiles

Position Reports

Time Latitude Longitude Heading Altitude Ground
Speed
16-Oct-20 12:50 36.080010 -115.126846 78 2183ft 0kts
16-Oct-20 12:52 36.080010 -115.126846 78 2183ft 0kts
16-Oct-20 12:53 36.080010 -115.126846 78 2183ft 0kts
16-Oct-20 12:54 36.080010 -115.126846 78 2183ft 0kts
16-Oct-20 12:55 36.080010 -115.126846 78 2183ft 0kts
16-Oct-20 12:56 36.080010 -115.126846 78 2183ft 0kts
16-Oct-20 12:57 36.080010 -115.126846 78 2183ft 0kts
16-Oct-20 12:58 36.080010 -115.126846 78 2183ft 0kts
16-Oct-20 12:59 36.080010 -115.126846 78 2183ft 0kts
16-Oct-20 13:00 36.080010 -115.126846 78 2183ft 0kts
16-Oct-20 13:01 36.080010 -115.126846 78 2183ft 0kts
16-Oct-20 13:02 36.080010 -115.126846 78 2183ft 0kts
16-Oct-20 13:03 36.080010 -115.126846 78 2183ft 0kts
16-Oct-20 13:04 36.080010 -115.126846 78 2183ft 0kts
16-Oct-20 13:05 36.080010 -115.126846 78 2183ft 0kts
16-Oct-20 13:06 36.080010 -115.126845 78 2183ft 0kts
16-Oct-20 13:07 36.080009 -115.126571 108 2183ft 5kts
16-Oct-20 13:07 36.077716 -115.126181 132 2183ft 12kts
16-Oct-20 13:09 36.077381 -115.121332 135 2183ft 7kts
16-Oct-20 13:09 36.076334 -115.127011 275 2184ft 78kts
16-Oct-20 13:11 36.076707 -115.191276 273 3197ft 210kts
16-Oct-20 13:11 36.069427 -115.249565 220 5972ft 206kts
16-Oct-20 13:12 36.012357 -115.284540 202 8414ft 255kts
16-Oct-20 13:13 35.937355 -115.299478 151 11348ft 302kts
16-Oct-20 13:14 35.860474 -115.254361 136 14633ft 312kts
16-Oct-20 13:15 35.864300 -115.150966 86 16548ft 334kts
16-Oct-20 13:16 35.871298 -115.037910 60 18977ft 334kts
16-Oct-20 13:17 35.924706 -114.935668 59 21073ft 368kts
16-Oct-20 13:18 35.972979 -114.821468 63 23612ft 380kts
16-Oct-20 13:19 36.018620 -114.701445 62 25588ft 394kts
16-Oct-20 13:20 36.066439 -114.577112 62 27249ft 406kts
16-Oct-20 13:21 36.115466 -114.449341 63 28655ft 416kts
16-Oct-20 13:22 36.165787 -114.317698 63 29641ft 430kts
16-Oct-20 13:23 36.217717 -114.182657 62 30588ft 438kts
16-Oct-20 13:24 36.270455 -114.047101 62 31859ft 437kts
16-Oct-20 13:25 36.323065 -113.911180 62 32996ft 436kts
16-Oct-20 13:26 36.375480 -113.775146 62 34013ft 436kts
16-Oct-20 13:27 36.427535 -113.639472 62 35000ft 435kts
16-Oct-20 13:28 36.518519 -113.561151 355 35898ft 408kts
16-Oct-20 13:29 36.631913 -113.556609 7 36812ft 410kts
16-Oct-20 13:30 36.743837 -113.524779 8 37233ft 421kts
16-Oct-20 13:31 36.860371 -113.489661 9 37230ft 438kts
16-Oct-20 13:32 36.980854 -113.453164 9 37220ft 451kts
16-Oct-20 13:33 37.104257 -113.415652 9 37220ft 460kts
16-Oct-20 13:34 37.229723 -113.377388 9 37222ft 466kts
16-Oct-20 13:35 37.356221 -113.338668 9 37251ft 467kts
16-Oct-20 13:36 37.481985 -113.298814 10 37286ft 466kts
16-Oct-20 13:37 37.607491 -113.258386 10 37313ft 465kts
16-Oct-20 13:38 37.732971 -113.217875 9 37322ft 466kts
16-Oct-20 13:39 37.858722 -113.177131 9 37322ft 467kts
16-Oct-20 13:40 37.984716 -113.136169 10 37322ft 466kts
16-Oct-20 13:41 38.110370 -113.095170 9 37324ft 465kts
16-Oct-20 13:42 38.235827 -113.054093 9 37336ft 465kts
16-Oct-20 13:43 38.360637 -113.012554 13 37332ft 467kts
16-Oct-20 13:44 38.480927 -112.947033 17 37332ft 469kts
16-Oct-20 13:45 38.601373 -112.881996 18 37333ft 469kts
16-Oct-20 13:46 38.721466 -112.816470 18 37334ft 469kts
16-Oct-20 13:47 38.841172 -112.750821 18 37339ft 468kts
16-Oct-20 13:48 38.960972 -112.684874 18 37346ft 468kts
16-Oct-20 13:49 39.080485 -112.618828 18 37351ft 468kts
16-Oct-20 13:50 39.200047 -112.552517 18 37354ft 467kts
16-Oct-20 13:51 39.319597 -112.485960 18 37355ft 467kts
16-Oct-20 13:52 39.438624 -112.419447 18 37357ft 466kts
16-Oct-20 13:53 39.557689 -112.352666 18 37358ft 466kts
16-Oct-20 13:54 39.676405 -112.285831 18 37358ft 465kts
16-Oct-20 13:55 39.795047 -112.218782 18 37358ft 464kts
16-Oct-20 13:56 39.913463 -112.151610 18 37358ft 464kts
16-Oct-20 13:57 40.031663 -112.083515 18 37361ft 464kts
16-Oct-20 13:58 40.149414 -112.014345 18 37365ft 464kts
16-Oct-20 13:59 40.266929 -111.945132 18 37376ft 464kts
16-Oct-20 14:00 40.387392 -111.887189 13 37380ft 459kts
16-Oct-20 14:01 40.508360 -111.832501 13 37374ft 459kts
16-Oct-20 14:02 40.628782 -111.776880 14 37374ft 459kts
16-Oct-20 14:03 40.748590 -111.721111 14 35780ft 446kts
16-Oct-20 14:04 40.863262 -111.667548 15 34052ft 434kts
16-Oct-20 14:05 40.978225 -111.613688 15 32344ft 443kts
16-Oct-20 14:06 41.095939 -111.558273 15 30601ft 454kts
16-Oct-20 14:07 41.215949 -111.501547 15 28816ft 461kts
16-Oct-20 14:08 41.337524 -111.443856 15 26990ft 467kts
16-Oct-20 14:09 41.460483 -111.385279 15 25142ft 470kts
16-Oct-20 14:10 41.583658 -111.326362 15 23304ft 472kts
16-Oct-20 14:11 41.706136 -111.279193 8 21455ft 440kts
16-Oct-20 14:12 41.823384 -111.241285 9 19257ft 428kts
16-Oct-20 14:13 41.938273 -111.202279 11 17052ft 425kts
16-Oct-20 14:14 42.050785 -111.164629 8 15794ft 408kts
16-Oct-20 14:15 42.159860 -111.128301 8 14694ft 401kts
16-Oct-20 14:16 42.268034 -111.091893 8 13611ft 400kts
16-Oct-20 14:17 42.366384 -111.058457 6 12458ft 299kts
16-Oct-20 14:18 42.439997 -111.033704 7 11314ft 273kts
16-Oct-20 14:19 42.517475 -111.007429 10 10258ft 287kts
16-Oct-20 14:20 42.590839 -110.974993 20 9372ft 271kts
16-Oct-20 14:21 42.652203 -110.940402 359 7501ft 184kts
16-Oct-20 14:22 42.692881 -110.942155 356 6348ft 141kts
16-Oct-20 14:23 42.710765 -110.941682 87 6204ft 8kts
16-Oct-20 14:24 42.710385 -110.940756 269 6204ft 0kts
16-Oct-20 14:25 42.710385 -110.940756 269 6204ft 0kts
16-Oct-20 14:26 42.710385 -110.940756 269 6204ft 0kts
16-Oct-20 14:27 42.710385 -110.940756 269 6204ft 0kts
16-Oct-20 14:28 42.710385 -110.940756 269 6204ft 0kts
16-Oct-20 14:29 42.710385 -110.940756 269 6204ft 0kts
16-Oct-20 14:30 42.710384 -110.940758 257 6204ft 0kts
16-Oct-20 14:31 42.710384 -110.940758 257 6204ft 0kts
16-Oct-20 14:32 42.710384 -110.940758 257 6204ft 0kts
16-Oct-20 14:33 42.710384 -110.940758 257 6204ft 0kts
16-Oct-20 14:34 42.710384 -110.940758 257 6204ft 0kts
16-Oct-20 14:35 42.710384 -110.940758 257 6204ft 0kts
16-Oct-20 14:36 42.710384 -110.940758 257 6204ft 0kts
16-Oct-20 14:37 42.710384 -110.940758 257 6204ft 0kts
16-Oct-20 14:38 42.710384 -110.940758 257 6204ft 0kts

Navigation Log

Ident Type
Flight plan parsing failed, navigation log unavailable